createdAt,value
2018-09-17T00:00:36.044Z,97463
2018-09-17T00:01:52.026Z,97463
2018-09-17T00:03:08.100Z,97465
2018-09-17T00:04:24.117Z,97466
2018-09-17T00:05:40.071Z,97465
2018-09-17T00:06:56.187Z,97464
2018-09-17T00:08:13.138Z,97465
2018-09-17T00:09:29.168Z,97461
2018-09-17T00:10:45.284Z,97460
2018-09-17T00:12:01.297Z,97460
2018-09-17T00:13:17.290Z,97461
2018-09-17T00:14:33.212Z,97461
2018-09-17T00:15:49.135Z,97461
2018-09-17T00:17:05.105Z,97460
2018-09-17T00:18:21.152Z,97461
2018-09-17T00:19:37.205Z,97462
2018-09-17T00:20:53.137Z,97464
2018-09-17T00:22:09.164Z,97463
2018-09-17T00:23:25.151Z,97464
2018-09-17T00:24:41.231Z,97466
2018-09-17T00:25:57.163Z,97467
2018-09-17T00:27:13.153Z,97467
2018-09-17T00:28:29.206Z,97466
2018-09-17T00:29:45.165Z,97466
2018-09-17T00:31:19.022Z,97466
2018-09-17T00:32:35.036Z,97466
2018-09-17T00:33:50.964Z,97463
2018-09-17T00:35:07.008Z,97466
2018-09-17T00:36:40.841Z,97463
2018-09-17T00:37:56.947Z,97463
2018-09-17T00:39:12.867Z,97460
2018-09-17T00:40:28.804Z,97461
2018-09-17T00:41:44.918Z,97459
2018-09-17T00:43:01.046Z,97462
2018-09-17T00:45:50.988Z,97459
2018-09-17T00:47:06.951Z,97457
2018-09-17T00:48:22.918Z,97456
2018-09-17T00:49:38.855Z,97451
2018-09-17T00:52:36.416Z,97441
2018-09-17T00:54:11.344Z,97447
2018-09-17T00:55:27.278Z,97447
2018-09-17T00:56:43.204Z,97449
2018-09-17T00:58:17.101Z,97443
2018-09-17T00:59:33.042Z,97448
2018-09-17T01:01:06.872Z,97447
2018-09-17T01:19:55.966Z,97447
2018-09-17T01:21:11.906Z,97444
2018-09-17T01:22:45.766Z,97437
2018-09-17T01:24:01.732Z,97441
2018-09-17T01:25:17.688Z,97440
2018-09-17T01:26:33.692Z,97441
2018-09-17T01:27:49.759Z,97440
2018-09-17T01:29:05.937Z,97440
2018-09-17T01:30:21.927Z,97439
2018-09-17T01:31:37.913Z,97437
2018-09-17T01:32:53.954Z,97440
2018-09-17T01:34:09.903Z,97438
2018-09-17T01:35:25.875Z,97440
2018-09-17T01:36:41.789Z,97436
2018-09-17T01:37:57.724Z,97441
2018-09-17T01:39:13.683Z,97439
2018-09-17T01:40:29.637Z,97438
2018-09-17T01:41:45.623Z,97440
2018-09-17T01:43:01.661Z,97443
2018-09-17T01:45:51.426Z,97440
2018-09-17T01:47:07.357Z,97443
2018-09-17T01:48:23.302Z,97443
2018-09-17T01:49:39.249Z,97437
2018-09-17T01:50:55.149Z,97443
2018-09-17T01:52:29.008Z,97440
2018-09-17T01:55:18.955Z,97440
2018-09-17T01:56:35.003Z,97442
2018-09-17T01:57:51.034Z,97444
2018-09-17T01:59:25.908Z,97434
2018-09-17T02:00:41.943Z,97432
2018-09-17T02:01:57.877Z,97436
2018-09-17T02:03:13.899Z,97432
2018-09-17T02:04:29.940Z,97434
2018-09-17T02:06:03.857Z,97425
2018-09-17T02:07:19.785Z,97423
2018-09-17T02:08:35.742Z,97426
2018-09-17T02:09:51.735Z,97424
2018-09-17T02:11:07.758Z,97429
2018-09-17T02:12:23.751Z,97428
2018-09-17T02:13:39.718Z,97431
2018-09-17T02:14:55.693Z,97429
2018-09-17T02:16:11.627Z,97433
2018-09-17T02:17:45.605Z,97432
2018-09-17T02:19:01.678Z,97428
2018-09-17T02:20:17.582Z,97430
2018-09-17T02:21:33.668Z,97433
2018-09-17T02:22:49.588Z,97427
2018-09-17T02:24:23.413Z,97428
2018-09-17T02:25:39.413Z,97432
2018-09-17T02:26:55.374Z,97428
2018-09-17T02:28:11.435Z,97427
2018-09-17T02:29:27.408Z,97424
2018-09-17T02:30:43.346Z,97426
2018-09-17T02:31:59.302Z,97430
2018-09-17T02:34:55.969Z,97427
2018-09-17T02:36:11.996Z,97430
2018-09-17T02:37:27.918Z,97431
2018-09-17T02:40:24.393Z,97434
2018-09-17T02:41:40.373Z,97440
2018-09-17T02:43:15.144Z,97440
2018-09-17T02:44:31.078Z,97439
2018-09-17T02:47:10.326Z,97444
2018-09-17T02:48:26.322Z,97439
2018-09-17T02:49:42.261Z,97438
2018-09-17T02:50:58.171Z,97435
2018-09-17T02:52:14.180Z,97438
2018-09-17T02:53:30.314Z,97433
2018-09-17T02:57:42.654Z,97439
2018-09-17T02:58:58.735Z,97435
2018-09-17T03:00:14.734Z,97437
2018-09-17T03:04:27.494Z,97435
2018-09-17T03:05:43.424Z,97429
2018-09-17T03:06:59.463Z,97435
2018-09-17T03:08:15.492Z,97439
2018-09-17T03:09:31.544Z,97435
2018-09-17T03:12:29.430Z,97431
2018-09-17T03:14:04.373Z,97434
2018-09-17T03:15:20.288Z,97435
2018-09-17T03:16:54.375Z,97442
2018-09-17T03:18:10.359Z,97444
2018-09-17T03:19:26.399Z,97443
2018-09-17T03:21:01.266Z,97449
2018-09-17T03:22:17.280Z,97452
2018-09-17T03:23:33.365Z,97452
2018-09-17T03:24:49.349Z,97454
2018-09-17T03:26:05.256Z,97453
2018-09-17T03:27:21.240Z,97459
2018-09-17T03:28:37.212Z,97452
2018-09-17T03:29:53.126Z,97453
2018-09-17T03:31:09.188Z,97451
2018-09-17T03:32:25.231Z,97450
2018-09-17T03:33:41.249Z,97456
2018-09-17T03:34:57.273Z,97459
2018-09-17T03:36:13.192Z,97459
2018-09-17T03:37:29.253Z,97465
2018-09-17T03:38:45.225Z,97467
2018-09-17T03:40:01.121Z,97467
2018-09-17T03:41:17.070Z,97469
2018-09-17T03:42:33.019Z,97467
2018-09-17T03:43:49.046Z,97469
2018-09-17T03:45:04.967Z,97473
2018-09-17T03:46:21.013Z,97470
2018-09-17T03:47:36.935Z,97469
2018-09-17T03:48:52.963Z,97473
2018-09-17T03:50:08.859Z,97476
2018-09-17T03:51:24.873Z,97477
2018-09-17T03:52:40.846Z,97475
2018-09-17T03:53:56.800Z,97479
2018-09-17T03:55:12.743Z,97482
2018-09-17T03:56:47.558Z,97482
2018-09-17T03:58:03.633Z,97483
2018-09-17T03:59:19.757Z,97483
2018-09-17T04:00:35.802Z,97488
2018-09-17T04:01:51.725Z,97483
2018-09-17T04:03:07.703Z,97487
2018-09-17T04:04:24.840Z,97482
2018-09-17T04:05:40.874Z,97483
2018-09-17T04:07:14.835Z,97485
2018-09-17T04:08:30.876Z,97481
2018-09-17T04:09:46.842Z,97479
2018-09-17T04:11:02.935Z,97475
2018-09-17T04:12:19.019Z,97480
2018-09-17T04:13:52.845Z,97481
2018-09-17T04:15:08.849Z,97479
2018-09-17T04:16:42.779Z,97482
2018-09-17T04:17:58.902Z,97482
2018-09-17T04:19:14.910Z,97484
2018-09-17T04:22:11.467Z,97489
2018-09-17T04:23:27.405Z,97495
2018-09-17T04:24:43.397Z,97500
2018-09-17T04:25:59.386Z,97495
2018-09-17T04:27:33.312Z,97503
2018-09-17T04:50:35.793Z,97515
2018-09-17T04:52:09.669Z,97517
2018-09-17T04:55:00.559Z,97523
2018-09-17T04:56:16.620Z,97530
2018-09-17T04:57:32.630Z,97529
2018-09-17T04:58:48.650Z,97525
2018-09-17T05:01:39.684Z,97520
2018-09-17T05:03:14.559Z,97516
2018-09-17T05:04:49.450Z,97517
2018-09-17T05:06:05.453Z,97514
2018-09-17T05:07:21.613Z,97516
2018-09-17T05:10:18.374Z,97511
2018-09-17T05:11:52.395Z,97512
2018-09-17T05:13:08.405Z,97512
2018-09-17T05:14:24.246Z,97513
2018-09-17T05:15:58.104Z,97515
2018-09-17T05:17:14.205Z,97512
2018-09-17T05:19:53.147Z,97517
2018-09-17T05:21:09.074Z,97523
2018-09-17T05:22:25.080Z,97521
2018-09-17T05:25:14.957Z,97531
2018-09-17T05:26:31.999Z,97534
2018-09-17T05:29:10.981Z,97534
2018-09-17T05:30:26.901Z,97538
2018-09-17T05:32:00.718Z,97546
2018-09-17T05:35:14.695Z,97547
2018-09-17T05:36:30.506Z,97544
2018-09-17T05:37:46.591Z,97542
2018-09-17T05:39:20.408Z,97543
2018-09-17T05:40:36.379Z,97539
2018-09-17T05:41:52.304Z,97540
2018-09-17T05:43:09.341Z,97539
2018-09-17T05:44:43.256Z,97536
2018-09-17T05:46:17.263Z,97535
2018-09-17T05:47:33.192Z,97536
2018-09-17T05:49:07.255Z,97538
2018-09-17T05:50:23.155Z,97534
2018-09-17T05:51:39.178Z,97535
2018-09-17T05:52:55.254Z,97539
2018-09-17T05:54:11.164Z,97542
2018-09-17T05:55:45.143Z,97544
2018-09-17T05:57:19.012Z,97550
2018-09-17T05:58:34.967Z,97551
2018-09-17T06:00:08.907Z,97554
2018-09-17T06:01:42.756Z,97557
2018-09-17T06:02:58.692Z,97554
2018-09-17T06:04:14.681Z,97558
2018-09-17T06:05:30.743Z,97558
2018-09-17T06:06:46.777Z,97562
2018-09-17T06:08:02.746Z,97561
2018-09-17T06:09:18.844Z,97562
2018-09-17T06:10:53.823Z,97564
2018-09-17T06:12:09.900Z,97553
2018-09-17T06:13:43.808Z,97555
2018-09-17T06:14:59.828Z,97558
2018-09-17T06:16:15.750Z,97562
2018-09-17T06:17:49.630Z,97565
2018-09-17T06:19:23.672Z,97561
2018-09-17T06:20:39.692Z,97566
2018-09-17T06:21:55.777Z,97563
2018-09-17T06:23:30.738Z,97556
2018-09-17T06:25:04.777Z,97556
2018-09-17T06:26:38.843Z,97562
2018-09-17T06:27:54.846Z,97561
2018-09-17T06:32:18.721Z,97564
2018-09-17T06:33:34.773Z,97567
2018-09-17T06:35:08.623Z,97565
2018-09-17T06:36:24.566Z,97562
2018-09-17T06:37:40.596Z,97569
2018-09-17T06:38:56.534Z,97570
2018-09-17T06:40:12.674Z,97569
2018-09-17T06:41:28.664Z,97569
2018-09-17T06:42:44.682Z,97565
2018-09-17T06:44:00.695Z,97566
2018-09-17T06:45:16.743Z,97566
2018-09-17T06:46:32.832Z,97564
2018-09-17T06:47:48.738Z,97565
2018-09-17T06:49:04.776Z,97566
2018-09-17T06:50:20.777Z,97567
2018-09-17T06:51:36.689Z,97564
2018-09-17T06:52:52.669Z,97567
2018-09-17T06:54:08.762Z,97572
2018-09-17T06:55:42.727Z,97573
2018-09-17T06:56:58.688Z,97575
2018-09-17T06:58:14.626Z,97580
2018-09-17T06:59:30.568Z,97580
2018-09-17T07:00:46.636Z,97577
2018-09-17T07:02:02.791Z,97575
2018-09-17T07:03:18.823Z,97578
2018-09-17T07:04:53.746Z,97577
2018-09-17T07:06:28.637Z,97579
2018-09-17T07:07:44.675Z,97575
2018-09-17T07:09:00.666Z,97575
2018-09-17T07:10:16.608Z,97572
2018-09-17T07:11:32.582Z,97571
2018-09-17T07:12:48.619Z,97573
2018-09-17T07:14:04.554Z,97573
2018-09-17T07:15:20.501Z,97574
2018-09-17T07:16:36.579Z,97575
2018-09-17T07:17:52.584Z,97573
2018-09-17T07:19:08.574Z,97570
2018-09-17T07:20:24.740Z,97570
2018-09-17T07:21:40.698Z,97572
2018-09-17T07:22:56.689Z,97569
2018-09-17T07:24:31.567Z,97566
2018-09-17T07:25:47.539Z,97568
2018-09-17T07:27:03.444Z,97569
2018-09-17T07:28:19.364Z,97564
2018-09-17T07:29:35.402Z,97564
2018-09-17T07:31:09.369Z,97562
2018-09-17T07:32:44.302Z,97562
2018-09-17T07:34:00.393Z,97563
2018-09-17T07:35:16.363Z,97561
2018-09-17T07:36:50.207Z,97559
2018-09-17T07:38:06.137Z,97557
2018-09-17T07:39:22.136Z,97557
2018-09-17T07:40:38.262Z,97562
2018-09-17T07:41:54.274Z,97565
2018-09-17T07:44:52.007Z,97564
2018-09-17T07:46:07.975Z,97561
2018-09-17T07:47:24.036Z,97561
2018-09-17T07:50:20.661Z,97556
2018-09-17T07:51:36.664Z,97561
2018-09-17T07:52:52.628Z,97560
2018-09-17T07:54:27.587Z,97555
2018-09-17T07:55:44.529Z,97555
2018-09-17T07:57:00.615Z,97554
2018-09-17T07:58:16.619Z,97558
2018-09-17T07:59:32.604Z,97555
2018-09-17T08:00:48.573Z,97557
2018-09-17T08:02:04.570Z,97554
2018-09-17T08:03:38.403Z,97557
2018-09-17T08:05:13.291Z,97551
2018-09-17T08:06:29.341Z,97551
2018-09-17T08:08:04.209Z,97549
2018-09-17T08:09:20.253Z,97536
2018-09-17T08:10:36.219Z,97533
2018-09-17T08:11:52.143Z,97537
2018-09-17T08:13:08.248Z,97539
2018-09-17T08:14:24.314Z,97538
2018-09-17T08:15:58.430Z,97541
2018-09-17T08:17:14.368Z,97539
2018-09-17T08:18:30.439Z,97538
2018-09-17T08:19:46.453Z,97535
2018-09-17T08:21:02.330Z,97538
2018-09-17T08:22:18.483Z,97539
2018-09-17T08:23:52.350Z,97537
2018-09-17T08:25:08.413Z,97535
2018-09-17T08:26:25.435Z,97536
2018-09-17T08:27:41.400Z,97531
2018-09-17T08:28:57.348Z,97534
2018-09-17T08:30:13.420Z,97533
2018-09-17T08:31:29.692Z,97530
2018-09-17T08:32:46.137Z,97533
2018-09-17T08:34:02.504Z,97527
2018-09-17T08:35:18.697Z,97527
2018-09-17T08:36:34.702Z,97522
2018-09-17T08:37:50.763Z,97524
2018-09-17T08:39:06.745Z,97527
2018-09-17T08:40:22.795Z,97521
2018-09-17T08:41:56.648Z,97522
2018-09-17T08:43:12.664Z,97519
2018-09-17T08:44:28.758Z,97522
2018-09-17T08:47:18.706Z,97517
2018-09-17T08:48:34.648Z,97512
2018-09-17T08:49:50.617Z,97510
2018-09-17T08:51:06.628Z,97505
2018-09-17T08:52:41.507Z,97503
2018-09-17T08:53:57.557Z,97501
2018-09-17T08:55:32.399Z,97499
2018-09-17T08:58:28.918Z,97500
2018-09-17T08:59:44.940Z,97500
2018-09-17T09:01:01.063Z,97499
2018-09-17T09:02:16.977Z,97498
2018-09-17T09:04:55.918Z,97495
2018-09-17T09:07:45.748Z,97487
2018-09-17T09:09:01.804Z,97482
2018-09-17T09:11:51.744Z,97484
2018-09-17T09:13:07.789Z,97481
2018-09-17T09:14:23.789Z,97481
2018-09-17T09:15:57.719Z,97479
2018-09-17T09:17:13.606Z,97477
2018-09-17T09:18:29.581Z,97475
2018-09-17T09:19:45.648Z,97475
2018-09-17T09:26:54.800Z,97472
2018-09-17T09:29:44.595Z,97469
2018-09-17T09:31:00.622Z,97471
2018-09-17T09:32:16.608Z,97469
2018-09-17T09:33:32.746Z,97469
2018-09-17T09:34:48.750Z,97467
2018-09-17T09:36:04.694Z,97463
2018-09-17T09:37:20.677Z,97468
2018-09-17T09:38:36.674Z,97468
2018-09-17T09:39:52.630Z,97466
2018-09-17T09:41:08.624Z,97456
2018-09-17T09:42:24.641Z,97460
2018-09-17T09:43:40.641Z,97458
2018-09-17T09:44:56.681Z,97456
2018-09-17T09:46:12.669Z,97455
2018-09-17T09:47:28.631Z,97457
2018-09-17T09:48:44.584Z,97459
2018-09-17T09:50:01.614Z,97461
2018-09-17T09:51:35.670Z,97460
2018-09-17T09:52:51.669Z,97460
2018-09-17T09:54:07.534Z,97456
2018-09-17T09:55:23.634Z,97450
2018-09-17T09:56:39.675Z,97450
2018-09-17T09:58:13.592Z,97448
2018-09-17T09:59:29.675Z,97440
2018-09-17T10:00:45.578Z,97438
2018-09-17T10:02:01.666Z,97443
2018-09-17T10:03:17.613Z,97439
2018-09-17T10:04:33.638Z,97437
2018-09-17T10:05:49.656Z,97438
2018-09-17T10:07:05.635Z,97436
2018-09-17T10:08:21.667Z,97433
2018-09-17T10:09:37.733Z,97433
2018-09-17T10:10:53.689Z,97436
2018-09-17T10:12:09.682Z,97434
2018-09-17T10:13:25.629Z,97433
2018-09-17T10:14:41.596Z,97436
2018-09-17T10:16:15.627Z,97433
2018-09-17T10:17:31.594Z,97438
2018-09-17T10:18:47.521Z,97437
2018-09-17T10:20:03.531Z,97432
2018-09-17T10:21:19.561Z,97424
2018-09-17T10:22:35.582Z,97424
2018-09-17T10:23:51.727Z,97422
2018-09-17T10:25:07.679Z,97422
2018-09-17T10:26:41.676Z,97421
2018-09-17T10:27:57.630Z,97424
2018-09-17T10:29:13.762Z,97419
2018-09-17T10:30:29.746Z,97417
2018-09-17T10:31:45.840Z,97417
2018-09-17T10:33:01.854Z,97412
2018-09-17T10:34:17.849Z,97413
2018-09-17T10:35:33.923Z,97412
2018-09-17T10:36:49.879Z,97410
2018-09-17T10:38:05.893Z,97414
2018-09-17T10:39:21.832Z,97410
2018-09-17T10:40:37.786Z,97411
2018-09-17T10:41:53.844Z,97410
2018-09-17T10:43:09.908Z,97408
2018-09-17T10:44:25.878Z,97411
2018-09-17T10:45:41.911Z,97407
2018-09-17T10:46:58.032Z,97404
2018-09-17T10:48:14.075Z,97407
2018-09-17T10:49:30.065Z,97405
2018-09-17T10:50:46.004Z,97407
2018-09-17T10:52:02.059Z,97402
2018-09-17T10:53:18.202Z,97404
2018-09-17T10:54:34.244Z,97401
2018-09-17T10:55:50.180Z,97403
2018-09-17T10:57:06.191Z,97399
2018-09-17T10:58:22.309Z,97400
2018-09-17T10:59:38.375Z,97400
2018-09-17T11:00:54.614Z,97402
2018-09-17T11:02:10.637Z,97399
2018-09-17T11:03:44.717Z,97394
2018-09-17T11:05:00.740Z,97396
2018-09-17T11:06:16.837Z,97388
2018-09-17T11:07:32.836Z,97386
2018-09-17T11:08:48.850Z,97386
2018-09-17T11:10:04.795Z,97384
2018-09-17T11:11:38.793Z,97384
2018-09-17T11:12:54.790Z,97381
2018-09-17T11:14:10.704Z,97381
2018-09-17T11:15:44.624Z,97383
2018-09-17T11:17:00.560Z,97378
2018-09-17T11:18:16.570Z,97378
2018-09-17T11:19:32.599Z,97380
2018-09-17T11:20:48.507Z,97378
2018-09-17T11:22:04.421Z,97378
2018-09-17T11:23:20.493Z,97377
2018-09-17T11:24:55.324Z,97378
2018-09-17T11:26:11.325Z,97373
2018-09-17T11:27:27.257Z,97374
2018-09-17T11:28:43.319Z,97379
2018-09-17T11:29:59.344Z,97378
2018-09-17T11:31:15.372Z,97374
2018-09-17T11:32:31.279Z,97378
2018-09-17T11:34:06.134Z,97371
2018-09-17T11:35:22.123Z,97373
2018-09-17T11:36:38.145Z,97377
2018-09-17T11:37:54.282Z,97377
2018-09-17T11:39:10.240Z,97374
2018-09-17T11:40:45.108Z,97372
2018-09-17T11:42:01.064Z,97368
2018-09-17T11:43:17.046Z,97366
2018-09-17T11:44:34.108Z,97363
2018-09-17T11:45:50.080Z,97368
2018-09-17T11:47:06.041Z,97363
2018-09-17T11:48:22.069Z,97358
2018-09-17T11:49:38.089Z,97356
2018-09-17T11:50:54.190Z,97361
2018-09-17T11:52:10.234Z,97354
2018-09-17T11:53:26.171Z,97356
2018-09-17T11:54:42.119Z,97353
2018-09-17T11:55:58.050Z,97352
2018-09-17T11:57:14.006Z,97345
2018-09-17T11:59:05.788Z,97351
2018-09-17T12:00:21.797Z,97345
2018-09-17T12:01:55.706Z,97344
2018-09-17T12:03:11.644Z,97341
2018-09-17T12:04:27.707Z,97335
2018-09-17T12:05:43.733Z,97340
2018-09-17T12:06:59.716Z,97337
2018-09-17T12:08:15.758Z,97336
2018-09-17T12:09:32.712Z,97335
2018-09-17T12:11:07.838Z,97333
2018-09-17T12:12:23.775Z,97334
2018-09-17T12:13:39.775Z,97332
2018-09-17T12:14:55.730Z,97332
2018-09-17T12:16:11.716Z,97323
2018-09-17T12:17:27.699Z,97322
2018-09-17T12:18:43.646Z,97318
2018-09-17T12:19:59.748Z,97312
2018-09-17T12:21:15.828Z,97314
2018-09-17T12:22:31.832Z,97315
2018-09-17T12:23:47.881Z,97312
2018-09-17T12:25:03.972Z,97312
2018-09-17T12:26:20.041Z,97315
2018-09-17T12:27:35.966Z,97308
2018-09-17T12:28:51.937Z,97302
2018-09-17T12:30:07.905Z,97305
2018-09-17T12:31:42.773Z,97298
2018-09-17T12:32:58.809Z,97302
2018-09-17T12:34:14.767Z,97300
2018-09-17T12:35:31.780Z,97298
2018-09-17T12:36:47.787Z,97301
2018-09-17T12:38:03.919Z,97296
2018-09-17T12:39:37.757Z,97295
2018-09-17T12:40:53.760Z,97299
2018-09-17T12:42:09.686Z,97297
2018-09-17T12:43:44.683Z,97291
2018-09-17T12:45:18.546Z,97292
2018-09-17T12:46:34.485Z,97296
2018-09-17T12:47:50.627Z,97292
2018-09-17T12:49:06.564Z,97286
2018-09-17T12:50:22.584Z,97284
2018-09-17T12:51:38.535Z,97282
2018-09-17T12:52:54.505Z,97282
2018-09-17T12:54:10.611Z,97284
2018-09-17T12:57:00.372Z,97279
2018-09-17T12:58:16.353Z,97279
2018-09-17T12:59:32.541Z,97278
2018-09-17T13:01:06.437Z,97280
2018-09-17T13:02:22.440Z,97277
2018-09-17T13:03:38.403Z,97276
2018-09-17T13:04:54.389Z,97272
2018-09-17T13:06:10.334Z,97273
2018-09-17T13:07:26.334Z,97270
2018-09-17T13:08:42.334Z,97268
2018-09-17T13:09:58.309Z,97262
2018-09-17T13:11:14.243Z,97268
2018-09-17T13:12:30.265Z,97270
2018-09-17T13:14:04.109Z,97266
2018-09-17T13:15:20.198Z,97269
2018-09-17T13:16:36.233Z,97266
2018-09-17T13:17:52.194Z,97269
2018-09-17T13:19:26.192Z,97270
2018-09-17T13:21:00.042Z,97271
2018-09-17T13:22:15.944Z,97269
2018-09-17T13:23:32.075Z,97273
2018-09-17T13:24:48.127Z,97271
2018-09-17T13:26:04.077Z,97268
2018-09-17T13:27:20.012Z,97264
2018-09-17T13:28:36.128Z,97260
2018-09-17T13:29:52.198Z,97261
2018-09-17T13:31:08.276Z,97267
2018-09-17T13:32:24.533Z,97260
2018-09-17T13:33:40.624Z,97263
2018-09-17T13:34:56.636Z,97259
2018-09-17T13:36:30.593Z,97258
2018-09-17T13:37:46.695Z,97252
2018-09-17T13:39:20.552Z,97251
2018-09-17T13:40:36.522Z,97251
2018-09-17T13:41:52.581Z,97252
2018-09-17T13:45:01.349Z,97260
2018-09-17T13:46:17.489Z,97260
2018-09-17T13:47:51.410Z,97267
2018-09-17T13:49:07.435Z,97269
2018-09-17T13:50:23.504Z,97268
2018-09-17T13:51:39.527Z,97260
2018-09-17T13:53:13.503Z,97258
2018-09-17T13:54:29.419Z,97257
2018-09-17T13:55:45.476Z,97257
2018-09-17T13:57:01.578Z,97254
2018-09-17T13:58:17.754Z,97254
2018-09-17T13:59:33.857Z,97251
2018-09-17T14:00:49.937Z,97250
2018-09-17T14:02:05.983Z,97252
2018-09-17T14:03:21.988Z,97256
2018-09-17T14:04:38.027Z,97255
2018-09-17T14:05:54.210Z,97249
2018-09-17T14:07:10.346Z,97247
2018-09-17T14:08:45.378Z,97248
2018-09-17T14:11:35.464Z,97240
2018-09-17T14:13:10.506Z,97243
2018-09-17T14:14:44.443Z,97242
2018-09-17T14:16:00.528Z,97238
2018-09-17T14:17:16.821Z,97237
2018-09-17T14:20:07.112Z,97232
2018-09-17T14:21:23.464Z,97233
2018-09-17T14:22:40.503Z,97234
2018-09-17T14:25:31.573Z,97230
2018-09-17T14:26:47.879Z,97226
2018-09-17T14:31:18.685Z,97227
2018-09-17T14:32:52.896Z,97221
2018-09-17T14:34:08.926Z,97227
2018-09-17T14:35:25.144Z,97225
2018-09-17T14:38:04.005Z,97219
2018-09-17T14:39:37.899Z,97222
2018-09-17T14:40:53.944Z,97215
2018-09-17T14:42:10.093Z,97213
2018-09-17T14:43:26.244Z,97217
2018-09-17T14:45:00.204Z,97216
2018-09-17T14:46:16.416Z,97209
2018-09-17T14:47:32.533Z,97216
2018-09-17T14:48:48.647Z,97211
2018-09-17T14:50:04.680Z,97209
2018-09-17T14:51:20.647Z,97213
2018-09-17T14:52:36.709Z,97207
2018-09-17T14:54:10.966Z,97204
2018-09-17T14:55:27.004Z,97210
2018-09-17T14:56:44.024Z,97208
2018-09-17T14:58:00.121Z,97203
2018-09-17T14:59:16.239Z,97205
2018-09-17T15:00:32.215Z,97201
2018-09-17T15:02:06.235Z,97201
2018-09-17T15:03:22.199Z,97197
2018-09-17T15:04:56.174Z,97199
2018-09-17T15:06:30.168Z,97199
2018-09-17T15:07:46.414Z,97202
2018-09-17T15:09:02.364Z,97205
2018-09-17T15:10:19.536Z,97194
2018-09-17T15:11:35.374Z,97200
2018-09-17T15:13:10.366Z,97200
2018-09-17T15:14:26.495Z,97196
2018-09-17T15:15:42.629Z,97195
2018-09-17T15:16:59.643Z,97200
2018-09-17T15:18:15.630Z,97197
2018-09-17T15:19:31.596Z,97195
2018-09-17T15:20:47.673Z,97194
2018-09-17T15:22:21.776Z,97194
2018-09-17T15:23:37.785Z,97195
2018-09-17T15:24:53.881Z,97198
2018-09-17T15:26:10.154Z,97191
2018-09-17T15:27:26.139Z,97191
2018-09-17T15:28:43.243Z,97188
2018-09-17T15:30:17.166Z,97184
2018-09-17T15:31:33.401Z,97189
2018-09-17T15:33:08.414Z,97186
2018-09-17T15:34:24.712Z,97185
2018-09-17T15:35:40.792Z,97184
2018-09-17T15:36:56.989Z,97182
2018-09-17T15:38:13.262Z,97179
2018-09-17T15:39:29.322Z,97166
2018-09-17T15:41:03.363Z,97125
2018-09-17T15:42:19.368Z,97118
2018-09-17T15:43:35.529Z,97123
2018-09-17T15:44:51.571Z,97123
2018-09-17T15:46:07.677Z,97119
2018-09-17T15:47:42.864Z,97121
2018-09-17T15:48:59.242Z,97117
2018-09-17T15:50:15.598Z,97117
2018-09-17T15:51:30.764Z,97115
2018-09-17T15:54:27.436Z,97117
2018-09-17T15:55:43.598Z,97107
2018-09-17T15:56:59.558Z,97107
2018-09-17T16:24:16.907Z,97082
2018-09-17T16:29:00.113Z,97085
2018-09-17T16:30:16.337Z,97084
2018-09-17T16:31:51.225Z,97088
2018-09-17T16:33:07.360Z,97085
2018-09-17T16:36:04.115Z,97088
2018-09-17T16:39:11.987Z,97080
2018-09-17T16:42:02.068Z,97085
2018-09-17T16:43:18.213Z,97080
2018-09-17T16:45:10.275Z,97088
2018-09-17T16:46:44.262Z,97085
2018-09-17T16:48:19.170Z,97088
2018-09-17T16:49:53.281Z,97088
2018-09-17T16:51:45.132Z,97091
2018-09-17T16:53:01.305Z,97087
2018-09-17T16:54:53.086Z,97087
2018-09-17T16:58:02.429Z,97086
2018-09-17T16:59:36.504Z,97084
2018-09-17T17:00:52.785Z,97082
2018-09-17T17:02:44.949Z,97083
2018-09-17T17:04:01.014Z,97089
2018-09-17T17:05:17.245Z,97089
2018-09-17T17:06:33.280Z,97085
2018-09-17T17:07:49.460Z,97085
2018-09-17T17:09:23.458Z,97083
2018-09-17T17:10:39.522Z,97090
2018-09-17T17:14:05.280Z,97085
2018-09-17T17:15:21.389Z,97083
2018-09-17T17:16:55.492Z,97080
2018-09-17T17:20:03.749Z,97087
2018-09-17T17:21:37.764Z,97085
2018-09-17T17:22:53.779Z,97086
2018-09-17T17:24:09.960Z,97086
2018-09-17T17:25:25.906Z,97087
2018-09-17T17:26:59.954Z,97086
2018-09-17T17:28:16.329Z,97083
2018-09-17T17:31:24.220Z,97084
2018-09-17T17:32:40.369Z,97093
2018-09-17T17:34:14.347Z,97093
2018-09-17T17:35:30.549Z,97092
2018-09-17T17:37:05.580Z,97095
2018-09-17T17:38:57.527Z,97091
2018-09-17T17:40:49.352Z,97094
2018-09-17T17:45:50.493Z,97094
2018-09-17T17:47:06.495Z,97092
2018-09-17T17:48:23.730Z,97096
2018-09-17T17:49:57.768Z,97095
2018-09-17T17:51:14.774Z,97094
2018-09-17T17:52:48.804Z,97094
2018-09-17T17:54:04.887Z,97097
2018-09-17T17:55:39.944Z,97095
2018-09-17T17:56:56.053Z,97100
2018-09-17T17:58:12.275Z,97096
2018-09-17T17:59:28.542Z,97100
2018-09-17T18:00:44.681Z,97107
2018-09-17T18:02:18.734Z,97103
2018-09-17T18:03:34.834Z,97103
2018-09-17T18:04:50.905Z,97104
2018-09-17T18:06:25.843Z,97101
2018-09-17T18:08:00.771Z,97100
2018-09-17T18:09:16.949Z,97106
2018-09-17T18:10:50.870Z,97106
2018-09-17T18:12:07.151Z,97105
2018-09-17T18:13:23.351Z,97101
2018-09-17T18:14:40.149Z,97104
2018-09-17T18:15:56.175Z,97102
2018-09-17T18:17:30.160Z,97100
2018-09-17T18:18:47.068Z,97099
2018-09-17T18:21:37.433Z,97101
2018-09-17T18:22:53.622Z,97103
2018-09-17T18:24:09.876Z,97100
2018-09-17T18:25:26.959Z,97105
2018-09-17T18:26:43.280Z,97105
2018-09-17T18:27:59.469Z,97104
2018-09-17T18:29:15.652Z,97106
2018-09-17T18:32:12.601Z,97105
2018-09-17T18:33:28.805Z,97105
2018-09-17T18:35:02.791Z,97105
2018-09-17T18:36:18.907Z,97103
2018-09-17T18:37:35.957Z,97106
2018-09-17T18:39:10.161Z,97107
2018-09-17T18:40:25.197Z,97110
2018-09-17T18:41:41.338Z,97109
2018-09-17T19:01:38.409Z,97117
2018-09-17T19:02:54.802Z,97113
2018-09-17T19:04:10.827Z,97118
2018-09-17T19:05:27.001Z,97113
2018-09-17T19:07:01.022Z,97117
2018-09-17T19:08:34.947Z,97116
2018-09-17T19:09:50.953Z,97118
2018-09-17T19:11:07.136Z,97117
2018-09-17T19:12:42.432Z,97119
2018-09-17T19:14:16.397Z,97118
2018-09-17T19:15:32.591Z,97117
2018-09-17T19:16:49.201Z,97122
2018-09-17T19:18:24.148Z,97120
2018-09-17T19:23:07.461Z,97115
2018-09-17T19:24:23.526Z,97118
2018-09-17T19:25:39.638Z,97117
2018-09-17T19:26:55.806Z,97113
2018-09-17T19:28:12.069Z,97109
2018-09-17T19:29:28.303Z,97107
2018-09-17T19:33:41.476Z,97108
2018-09-17T19:34:57.566Z,97112
2018-09-17T19:36:14.745Z,97111
2018-09-17T19:37:30.872Z,97112
2018-09-17T20:02:02.556Z,97116
2018-09-17T20:06:44.727Z,97120
2018-09-17T20:09:52.689Z,97129
2018-09-17T20:11:08.965Z,97127
2018-09-17T20:12:25.095Z,97127
2018-09-17T20:13:59.123Z,97129
2018-09-17T20:15:15.256Z,97126
2018-09-17T20:16:31.343Z,97118
2018-09-17T20:19:21.484Z,97120
2018-09-17T20:20:55.763Z,97123
2018-09-17T20:22:11.872Z,97122
2018-09-17T20:23:45.840Z,97117
2018-09-17T20:25:01.977Z,97117
2018-09-17T20:26:18.117Z,97123
2018-09-17T20:27:34.264Z,97125
2018-09-17T20:28:50.340Z,97124
2018-09-17T20:30:07.681Z,97125
2018-09-17T20:33:16.521Z,97121
2018-09-17T20:34:50.491Z,97122
2018-09-17T20:36:06.562Z,97117